createdAt,value
2019-05-12T00:01:18.802Z,12.43
2019-05-12T00:03:53.341Z,12.42
2019-05-12T00:06:28.422Z,12.36
2019-05-12T00:09:02.734Z,12.31
2019-05-12T00:11:37.885Z,12.26
2019-05-12T00:14:12.054Z,12.23
2019-05-12T00:16:46.056Z,12.17
2019-05-12T00:19:19.857Z,12.10
2019-05-12T00:21:53.849Z,12.14
2019-05-12T00:24:28.057Z,12.03
2019-05-12T00:27:04.948Z,12.01
2019-05-12T00:29:38.829Z,11.94
2019-05-12T00:32:13.131Z,11.82
2019-05-12T00:34:48.058Z,11.89
2019-05-12T00:37:22.949Z,11.77
2019-05-12T00:39:59.275Z,11.70
2019-05-12T00:42:33.811Z,11.50
2019-05-12T00:45:08.714Z,11.41
2019-05-12T00:47:43.828Z,11.40
2019-05-12T00:50:20.657Z,11.40
2019-05-12T00:52:57.999Z,11.35
2019-05-12T00:55:38.871Z,11.40
2019-05-12T00:58:31.676Z,11.29
2019-05-12T01:01:25.510Z,11.15
2019-05-12T01:04:12.649Z,11.08
2019-05-12T01:07:05.683Z,10.97
2019-05-12T01:10:13.397Z,10.94
2019-05-12T01:18:18.175Z,10.83
2019-05-12T01:21:03.495Z,10.60
2019-05-12T01:24:38.381Z,10.50
2019-05-12T01:28:48.758Z,10.45
2019-05-12T01:39:33.536Z,10.38
2019-05-12T01:43:08.841Z,10.35
2019-05-12T01:46:28.778Z,10.24
2019-05-12T01:50:28.469Z,9.93
2019-05-12T01:53:14.021Z,9.68
2019-05-12T01:55:54.983Z,9.60
2019-05-12T01:58:39.519Z,9.68
2019-05-12T02:02:31.228Z,9.61
2019-05-12T02:06:15.054Z,9.63
2019-05-12T02:12:14.187Z,9.36
2019-05-12T02:14:53.564Z,9.39
2019-05-12T02:17:28.308Z,9.37
2019-05-12T02:20:03.332Z,9.32
2019-05-12T02:22:38.913Z,9.33
2019-05-12T02:25:13.001Z,9.35
2019-05-12T02:59:06.651Z,8.70
2019-05-12T03:09:30.172Z,8.58
2019-05-12T03:12:44.710Z,8.59
2019-05-12T03:23:39.384Z,8.37
2019-05-12T03:26:24.623Z,8.33
2019-05-12T03:29:05.703Z,8.27
2019-05-12T03:31:48.623Z,8.39
2019-05-12T04:30:08.477Z,8.07
2019-05-12T04:32:45.218Z,8.11
2019-05-12T04:35:19.315Z,8.09
2019-05-12T04:37:55.350Z,8.06
2019-05-12T04:40:49.228Z,8.01
2019-05-12T04:47:45.999Z,8.01
2019-05-12T04:50:24.541Z,8.06
2019-05-12T04:53:18.825Z,7.92
2019-05-12T04:56:07.433Z,7.81
2019-05-12T04:58:34.874Z,7.90
2019-05-12T05:01:17.892Z,7.86
2019-05-12T05:03:56.608Z,7.97
2019-05-12T05:06:35.723Z,7.90
2019-05-12T05:09:14.418Z,7.97
2019-05-12T05:11:48.338Z,7.93
2019-05-12T05:14:24.910Z,7.85
2019-05-12T05:17:00.999Z,7.85
2019-05-12T05:19:36.403Z,7.80
2019-05-12T05:22:47.581Z,7.79
2019-05-12T05:26:04.395Z,7.88
2019-05-12T05:38:51.059Z,7.74
2019-05-12T05:41:29.449Z,7.68
2019-05-12T06:32:11.273Z,7.95
2019-05-12T06:34:46.087Z,8.06
2019-05-12T06:37:57.352Z,8.09
2019-05-12T06:40:46.316Z,8.00
2019-05-12T06:43:33.598Z,8.08
2019-05-12T06:46:11.793Z,8.03
2019-05-12T06:49:10.258Z,8.05
2019-05-12T06:52:00.774Z,8.16
2019-05-12T06:54:34.455Z,8.19
2019-05-12T06:57:22.109Z,8.16
2019-05-12T07:00:08.766Z,8.12
2019-05-12T07:02:55.128Z,8.17
2019-05-12T07:05:50.386Z,8.22
2019-05-12T07:08:32.806Z,8.27
2019-05-12T07:11:07.700Z,8.36
2019-05-12T07:13:46.648Z,8.33
2019-05-12T07:16:29.515Z,8.45
2019-05-12T07:19:29.701Z,8.45
2019-05-12T07:50:58.442Z,8.55
2019-05-12T07:53:30.195Z,8.59
2019-05-12T07:56:07.190Z,8.71
2019-05-12T07:58:47.458Z,8.72
2019-05-12T08:01:18.418Z,8.76
2019-05-12T08:03:57.337Z,8.76
2019-05-12T08:06:34.615Z,8.65
2019-05-12T08:09:13.450Z,8.68
2019-05-12T08:12:19.066Z,8.73
2019-05-12T08:15:15.839Z,8.71
2019-05-12T08:17:59.679Z,8.77
2019-05-12T08:21:07.300Z,8.77
2019-05-12T08:23:48.619Z,8.86
2019-05-12T08:40:10.203Z,8.97
2019-05-12T08:54:11.029Z,9.02
2019-05-12T09:13:43.225Z,9.19
2019-05-12T09:46:03.799Z,9.31
2019-05-12T09:55:17.892Z,9.40
2019-05-12T10:07:19.465Z,9.40
2019-05-12T10:09:55.132Z,9.54
2019-05-12T10:12:36.601Z,9.49
2019-05-12T10:15:06.889Z,9.54
2019-05-12T10:17:40.543Z,9.59
2019-05-12T10:20:15.204Z,9.59
2019-05-12T10:22:49.761Z,9.65
2019-05-12T10:25:28.504Z,9.79
2019-05-12T10:28:02.991Z,9.64
2019-05-12T10:30:34.405Z,9.80
2019-05-12T10:33:07.940Z,9.75
2019-05-12T10:35:43.667Z,9.84
2019-05-12T10:38:16.407Z,9.94
2019-05-12T10:40:51.122Z,9.95
2019-05-12T10:43:24.936Z,9.86
2019-05-12T10:46:07.215Z,9.96
2019-05-12T10:51:53.981Z,9.93
2019-05-12T10:54:28.696Z,9.95
2019-05-12T10:57:05.053Z,9.94
2019-05-12T10:59:43.397Z,10.45
2019-05-12T11:02:14.003Z,10.32
2019-05-12T11:04:49.067Z,10.24
2019-05-12T11:07:28.005Z,10.29
2019-05-12T11:10:05.594Z,10.15
2019-05-12T11:12:36.388Z,10.02
2019-05-12T11:27:34.399Z,10.01
2019-05-12T11:45:44.202Z,10.43
2019-05-12T11:48:46.323Z,10.50
2019-05-12T11:58:33.508Z,10.59
2019-05-12T12:01:17.879Z,10.72
2019-05-12T12:03:54.502Z,10.80
2019-05-12T12:06:33.166Z,10.81
2019-05-12T12:09:15.494Z,11.00
2019-05-12T12:11:45.189Z,10.85
2019-05-12T12:14:20.045Z,10.90
2019-05-12T12:16:54.459Z,11.02
2019-05-12T12:19:37.830Z,11.08
2019-05-12T12:22:05.228Z,11.10
2019-05-12T12:36:04.253Z,11.13
2019-05-12T12:38:38.266Z,11.14
2019-05-12T12:41:13.186Z,11.27
2019-05-12T12:43:47.137Z,11.19
2019-05-12T12:46:24.697Z,11.24
2019-05-12T12:49:00.163Z,11.11
2019-05-12T12:51:34.340Z,11.06
2019-05-12T12:54:08.264Z,11.21
2019-05-12T12:56:43.110Z,11.21
2019-05-12T12:59:17.109Z,11.30
2019-05-12T13:01:51.128Z,11.22
2019-05-12T13:04:24.903Z,11.20
2019-05-12T13:06:58.672Z,11.25
2019-05-12T13:09:33.514Z,11.26
2019-05-12T13:12:14.307Z,11.16
2019-05-12T13:14:44.319Z,11.13
2019-05-12T13:17:20.034Z,11.09
2019-05-12T13:19:58.553Z,11.08
2019-05-12T13:22:29.799Z,10.92
2019-05-12T13:25:08.593Z,10.83
2019-05-12T13:27:40.479Z,10.89
2019-05-12T13:30:21.144Z,10.90
2019-05-12T13:32:55.857Z,10.81
2019-05-12T13:35:43.564Z,10.68
2019-05-12T13:38:17.033Z,10.72
2019-05-12T13:40:50.535Z,10.71
2019-05-12T13:43:25.938Z,10.75
2019-05-12T13:45:59.488Z,10.60
2019-05-12T13:48:34.032Z,10.67
2019-05-12T13:51:13.195Z,10.69
2019-05-12T13:53:53.784Z,10.80
2019-05-12T13:56:32.808Z,10.91
2019-05-12T14:11:38.938Z,10.94
2019-05-12T14:30:24.387Z,11.14
2019-05-12T14:33:18.450Z,11.20
2019-05-12T15:09:36.345Z,11.76
2019-05-12T15:16:40.421Z,12.09
2019-05-12T15:23:32.336Z,12.22
2019-05-12T15:26:29.646Z,12.14
2019-05-12T15:29:56.373Z,12.18
2019-05-12T15:36:07.507Z,12.24
2019-05-12T15:38:43.715Z,12.13
2019-05-12T15:42:09.183Z,12.15
2019-05-12T15:53:35.847Z,11.97
2019-05-12T15:56:14.989Z,11.97
2019-05-12T15:58:45.551Z,12.00
2019-05-12T16:01:21.316Z,11.93
2019-05-12T16:14:25.126Z,11.86
2019-05-12T16:17:27.142Z,11.96
2019-05-12T16:20:00.712Z,11.92
2019-05-12T16:22:36.835Z,11.93
2019-05-12T16:25:10.865Z,11.93
2019-05-12T16:27:45.274Z,11.94
2019-05-12T16:30:20.272Z,11.96
2019-05-12T16:32:55.021Z,12.01
2019-05-12T16:35:31.746Z,11.91
2019-05-12T16:38:06.012Z,11.91
2019-05-12T16:40:45.566Z,12.03
2019-05-12T16:43:16.550Z,12.03
2019-05-12T16:45:50.309Z,12.00
2019-05-12T16:48:33.071Z,12.01
2019-05-12T16:51:03.163Z,12.04
2019-05-12T16:53:36.819Z,12.05
2019-05-12T16:56:10.690Z,12.04
2019-05-12T16:58:44.638Z,12.01
2019-05-12T17:01:19.381Z,12.00
2019-05-12T17:03:54.712Z,11.99
2019-05-12T17:06:33.880Z,11.99
2019-05-12T17:09:05.030Z,11.94
2019-05-12T17:11:47.309Z,11.89
2019-05-12T17:14:13.825Z,11.90
2019-05-12T17:16:48.964Z,11.91
2019-05-12T17:19:23.658Z,11.90
2019-05-12T17:21:59.403Z,11.90
2019-05-12T17:24:34.253Z,11.91
2019-05-12T17:27:09.141Z,11.87
2019-05-12T17:29:43.497Z,11.86
2019-05-12T17:32:16.806Z,11.83
2019-05-12T17:34:50.215Z,11.85
2019-05-12T17:37:23.930Z,11.86
2019-05-12T17:39:57.300Z,11.80
2019-05-12T17:42:33.290Z,11.77
2019-05-12T17:45:09.397Z,11.74
2019-05-12T17:47:41.279Z,11.71
2019-05-12T17:50:14.959Z,11.68
2019-05-12T17:52:50.362Z,11.68
2019-05-12T17:55:23.312Z,11.65
2019-05-12T17:57:57.906Z,11.64
2019-05-12T18:00:33.548Z,11.65
2019-05-12T18:03:18.143Z,11.64
2019-05-12T18:05:47.548Z,11.61
2019-05-12T18:08:17.513Z,11.57
2019-05-12T18:10:54.284Z,11.58
2019-05-12T18:13:28.178Z,11.57
2019-05-12T18:16:05.580Z,11.55
2019-05-12T18:18:43.400Z,11.59
2019-05-12T18:21:22.116Z,11.54
2019-05-12T18:23:53.664Z,11.53
2019-05-12T18:26:27.367Z,11.37
2019-05-12T18:29:03.881Z,11.45
2019-05-12T18:31:36.697Z,11.44
2019-05-12T18:34:10.422Z,11.39
2019-05-12T18:36:49.024Z,11.35
2019-05-12T18:39:19.836Z,11.33
2019-05-12T18:41:54.605Z,11.29
2019-05-12T18:44:31.734Z,11.26
2019-05-12T18:47:07.925Z,11.23
2019-05-12T18:49:47.811Z,11.11
2019-05-12T18:52:23.770Z,11.08
2019-05-12T18:54:58.006Z,11.07
2019-05-12T18:57:39.016Z,11.09
2019-05-12T19:00:19.450Z,11.06
2019-05-12T19:02:54.617Z,11.06
2019-05-12T19:05:30.967Z,11.04
2019-05-12T19:08:04.815Z,11.04
2019-05-12T19:10:45.990Z,10.98
2019-05-12T19:13:14.645Z,10.95
2019-05-12T19:15:52.616Z,10.95
2019-05-12T19:18:32.345Z,10.94
2019-05-12T19:21:01.271Z,10.91
2019-05-12T19:23:37.618Z,10.90
2019-05-12T19:26:13.549Z,10.87
2019-05-12T19:28:52.823Z,10.87
2019-05-12T19:31:24.767Z,10.86
2019-05-12T19:34:15.724Z,10.87
2019-05-12T19:36:45.012Z,10.79
2019-05-12T19:39:11.843Z,10.80
2019-05-12T19:41:46.053Z,10.76
2019-05-12T19:44:19.904Z,10.69
2019-05-12T19:46:54.632Z,10.67
2019-05-12T19:49:28.387Z,10.50
2019-05-12T19:52:03.652Z,10.54
2019-05-12T19:54:38.131Z,10.52
2019-05-12T19:57:15.599Z,10.50
2019-05-12T19:59:50.969Z,10.52
2019-05-12T20:02:23.687Z,10.49
2019-05-12T20:04:57.181Z,10.50
2019-05-12T20:07:33.726Z,10.51
2019-05-12T20:10:06.641Z,10.50
2019-05-12T20:12:40.072Z,10.48
2019-05-12T20:15:15.019Z,10.45
2019-05-12T20:17:48.921Z,10.45
2019-05-12T20:20:28.850Z,10.41
2019-05-12T20:22:57.493Z,10.38
2019-05-12T20:25:31.002Z,10.38
2019-05-12T20:28:11.020Z,10.38
2019-05-12T20:30:39.436Z,10.36
2019-05-12T20:33:13.774Z,10.32
2019-05-12T20:35:49.201Z,10.24
2019-05-12T20:38:25.486Z,10.21
2019-05-12T20:40:58.119Z,10.19
2019-05-12T20:43:37.179Z,10.18
2019-05-12T20:46:06.585Z,10.17
2019-05-12T20:48:40.019Z,10.16
2019-05-12T20:51:15.310Z,10.14
2019-05-12T20:53:48.570Z,10.16
2019-05-12T20:56:24.720Z,10.17
2019-05-12T20:58:58.315Z,10.13
2019-05-12T21:01:33.610Z,10.16
2019-05-12T21:04:07.885Z,10.17
2019-05-12T21:06:43.141Z,10.18
2019-05-12T21:09:16.672Z,10.17
2019-05-12T21:11:50.173Z,10.20
2019-05-12T21:14:24.091Z,10.21
2019-05-12T21:16:57.615Z,10.23
2019-05-12T21:19:37.946Z,10.22
2019-05-12T21:22:06.157Z,10.16
2019-05-12T21:24:39.600Z,10.10
2019-05-12T21:27:15.731Z,10.10
2019-05-12T21:29:48.166Z,10.12
2019-05-12T21:32:24.034Z,10.14
2019-05-12T21:34:57.906Z,10.16
2019-05-12T21:37:37.045Z,10.17
2019-05-12T21:40:08.637Z,10.19
2019-05-12T21:42:44.320Z,10.14
2019-05-12T21:45:23.778Z,10.12
2019-05-12T21:47:56.304Z,10.15
2019-05-12T21:50:32.693Z,10.13
2019-05-12T21:53:04.332Z,10.13
2019-05-12T21:55:37.935Z,10.10
2019-05-12T21:58:12.904Z,10.10
2019-05-12T22:00:59.564Z,10.08
2019-05-12T22:03:27.939Z,9.97
2019-05-12T22:06:06.466Z,9.96
2019-05-12T22:08:36.473Z,9.90
2019-05-12T22:11:11.750Z,9.80
2019-05-12T22:13:54.873Z,9.83
2019-05-12T22:16:20.577Z,9.81
2019-05-12T22:18:59.045Z,9.81
2019-05-12T22:21:29.450Z,9.76
2019-05-12T22:24:06.181Z,9.77
2019-05-12T22:26:40.371Z,9.75
2019-05-12T22:29:13.977Z,9.76
2019-05-12T22:31:48.298Z,9.74
2019-05-12T22:34:27.365Z,9.74
2019-05-12T22:36:59.243Z,9.74
2019-05-12T22:39:33.896Z,9.63
2019-05-12T22:42:11.629Z,9.60
2019-05-12T22:44:43.754Z,9.62
2019-05-12T22:47:17.963Z,9.62
2019-05-12T22:49:55.330Z,9.65
2019-05-12T22:52:26.577Z,9.67
2019-05-12T22:55:00.034Z,9.61
2019-05-12T22:57:38.300Z,9.58
2019-05-12T23:00:13.523Z,9.59
2019-05-12T23:02:46.596Z,9.60
2019-05-12T23:05:20.704Z,9.59
2019-05-12T23:07:54.537Z,9.59
2019-05-12T23:10:28.223Z,9.59
2019-05-12T23:13:04.746Z,9.59
2019-05-12T23:15:42.286Z,9.58
2019-05-12T23:18:12.254Z,9.57
2019-05-12T23:20:45.724Z,9.57
2019-05-12T23:23:19.160Z,9.59
2019-05-12T23:26:00.194Z,9.59
2019-05-12T23:28:27.960Z,9.57
2019-05-12T23:31:01.491Z,9.61
2019-05-12T23:33:36.605Z,9.63
2019-05-12T23:36:15.834Z,9.59
2019-05-12T23:38:51.996Z,9.59
2019-05-12T23:41:23.796Z,9.54
2019-05-12T23:43:57.326Z,9.54
2019-05-12T23:46:30.821Z,9.55
2019-05-12T23:49:04.323Z,9.49
2019-05-12T23:51:37.853Z,9.50
2019-05-12T23:54:11.293Z,9.48
2019-05-12T23:56:44.810Z,9.43
2019-05-12T23:59:18.301Z,9.42
